sensor_id;sensor_type;location;lat;lon;timestamp;pressure;altitude;pressure_sealevel;temperature;humidity
78317;BME280;67572;50.930;18.276;2023-05-15T00:02:53;98489.38;;;11.89;84.86
78317;BME280;67572;50.930;18.276;2023-05-15T00:05:58;98494.13;;;11.74;86.00
78317;BME280;67572;50.930;18.276;2023-05-15T00:09:01;98486.22;;;11.84;86.10
78317;BME280;67572;50.930;18.276;2023-05-15T00:12:07;98476.19;;;11.76;86.32
78317;BME280;67572;50.930;18.276;2023-05-15T00:15:11;98467.63;;;11.73;86.52
78317;BME280;67572;50.930;18.276;2023-05-15T00:18:15;98468.47;;;11.73;86.58
78317;BME280;67572;50.930;18.276;2023-05-15T00:21:18;98447.00;;;11.54;87.03
78317;BME280;67572;50.930;18.276;2023-05-15T00:24:22;98424.63;;;11.56;87.02
78317;BME280;67572;50.930;18.276;2023-05-15T00:27:27;98432.63;;;11.56;87.63
78317;BME280;67572;50.930;18.276;2023-05-15T00:30:30;98436.50;;;11.73;87.38
78317;BME280;67572;50.930;18.276;2023-05-15T00:33:34;98441.84;;;11.73;86.91
78317;BME280;67572;50.930;18.276;2023-05-15T00:36:37;98424.56;;;11.67;86.83
78317;BME280;67572;50.930;18.276;2023-05-15T00:39:40;98416.09;;;11.62;86.85
78317;BME280;67572;50.930;18.276;2023-05-15T00:42:46;98415.34;;;11.72;86.83
78317;BME280;67572;50.930;18.276;2023-05-15T00:45:51;98416.00;;;11.64;86.53
78317;BME280;67572;50.930;18.276;2023-05-15T00:48:56;98396.72;;;11.72;86.72
78317;BME280;67572;50.930;18.276;2023-05-15T00:52:00;98391.38;;;11.72;86.77
78317;BME280;67572;50.930;18.276;2023-05-15T00:55:05;98402.44;;;11.56;87.29
78317;BME280;67572;50.930;18.276;2023-05-15T00:58:10;98402.91;;;11.61;87.34
78317;BME280;67572;50.930;18.276;2023-05-15T01:01:15;98404.88;;;11.80;87.30
78317;BME280;67572;50.930;18.276;2023-05-15T01:04:19;98386.69;;;11.64;87.09
78317;BME280;67572;50.930;18.276;2023-05-15T01:07:23;98381.38;;;11.64;87.30
78317;BME280;67572;50.930;18.276;2023-05-15T01:10:27;98373.03;;;11.78;87.13
78317;BME280;67572;50.930;18.276;2023-05-15T01:13:33;98370.00;;;11.83;86.89
78317;BME280;67572;50.930;18.276;2023-05-15T01:16:37;98380.66;;;11.83;86.72
78317;BME280;67572;50.930;18.276;2023-05-15T01:19:43;98375.69;;;11.78;86.26
78317;BME280;67572;50.930;18.276;2023-05-15T01:23:01;98365.28;;;11.86;86.47
78317;BME280;67572;50.930;18.276;2023-05-15T01:29:56;98355.22;;;11.79;86.29
78317;BME280;67572;50.930;18.276;2023-05-15T01:33:05;98350.31;;;11.74;86.34
78317;BME280;67572;50.930;18.276;2023-05-15T01:36:14;98346.66;;;11.75;86.90
78317;BME280;67572;50.930;18.276;2023-05-15T01:39:19;98343.53;;;11.81;86.57
78317;BME280;67572;50.930;18.276;2023-05-15T01:42:28;98332.50;;;11.75;86.97
78317;BME280;67572;50.930;18.276;2023-05-15T01:45:35;98336.75;;;12.08;86.09
78317;BME280;67572;50.930;18.276;2023-05-15T01:48:39;98339.25;;;12.00;85.84
78317;BME280;67572;50.930;18.276;2023-05-15T01:51:46;98334.19;;;11.76;86.22
78317;BME280;67572;50.930;18.276;2023-05-15T01:54:50;98336.94;;;11.85;86.21
78317;BME280;67572;50.930;18.276;2023-05-15T01:57:59;98335.88;;;11.98;86.37
78317;BME280;67572;50.930;18.276;2023-05-15T02:01:05;98319.03;;;11.87;86.00
78317;BME280;67572;50.930;18.276;2023-05-15T02:04:10;98324.38;;;11.97;85.97
78317;BME280;67572;50.930;18.276;2023-05-15T02:07:15;98324.91;;;11.91;86.37
78317;BME280;67572;50.930;18.276;2023-05-15T02:10:19;98320.38;;;11.82;86.46
78317;BME280;67572;50.930;18.276;2023-05-15T02:13:24;98322.34;;;12.10;85.94
78317;BME280;67572;50.930;18.276;2023-05-15T02:16:30;98302.72;;;12.11;85.35
78317;BME280;67572;50.930;18.276;2023-05-15T02:19:33;98305.63;;;12.08;85.38
78317;BME280;67572;50.930;18.276;2023-05-15T02:22:39;98297.44;;;11.90;86.28
78317;BME280;67572;50.930;18.276;2023-05-15T02:25:50;98290.56;;;11.88;86.86
78317;BME280;67572;50.930;18.276;2023-05-15T02:29:19;98288.22;;;11.94;86.57
78317;BME280;67572;50.930;18.276;2023-05-15T02:32:29;98292.09;;;11.90;86.46
78317;BME280;67572;50.930;18.276;2023-05-15T02:35:40;98295.06;;;11.87;86.24
78317;BME280;67572;50.930;18.276;2023-05-15T02:38:48;98292.97;;;12.01;85.98
78317;BME280;67572;50.930;18.276;2023-05-15T02:41:54;98296.69;;;12.19;85.09
78317;BME280;67572;50.930;18.276;2023-05-15T02:44:59;98298.38;;;12.10;84.77
78317;BME280;67572;50.930;18.276;2023-05-15T02:48:05;98296.56;;;12.30;84.01
78317;BME280;67572;50.930;18.276;2023-05-15T02:51:10;98290.88;;;12.54;83.22
78317;BME280;67572;50.930;18.276;2023-05-15T02:54:14;98272.34;;;12.43;83.88
78317;BME280;67572;50.930;18.276;2023-05-15T02:57:17;98247.75;;;12.30;84.11
78317;BME280;67572;50.930;18.276;2023-05-15T03:00:21;98249.88;;;12.36;84.26
78317;BME280;67572;50.930;18.276;2023-05-15T03:03:26;98246.59;;;12.03;85.12
78317;BME280;67572;50.930;18.276;2023-05-15T03:06:29;98245.59;;;11.94;85.58
78317;BME280;67572;50.930;18.276;2023-05-15T03:09:33;98239.34;;;12.34;85.03
78317;BME280;67572;50.930;18.276;2023-05-15T03:12:37;98219.13;;;12.32;84.17
78317;BME280;67572;50.930;18.276;2023-05-15T03:15:42;98223.06;;;12.18;83.88
78317;BME280;67572;50.930;18.276;2023-05-15T03:18:47;98210.44;;;12.20;84.73
78317;BME280;67572;50.930;18.276;2023-05-15T03:21:51;98203.28;;;12.20;85.26
78317;BME280;67572;50.930;18.276;2023-05-15T03:24:55;98208.91;;;12.27;84.83
78317;BME280;67572;50.930;18.276;2023-05-15T03:27:58;98207.78;;;12.30;84.83
78317;BME280;67572;50.930;18.276;2023-05-15T03:31:02;98208.75;;;12.38;83.85
78317;BME280;67572;50.930;18.276;2023-05-15T03:34:07;98203.56;;;12.46;83.25
78317;BME280;67572;50.930;18.276;2023-05-15T03:37:10;98193.91;;;12.55;83.41
78317;BME280;67572;50.930;18.276;2023-05-15T03:40:14;98198.09;;;12.29;83.63
78317;BME280;67572;50.930;18.276;2023-05-15T03:43:17;98194.03;;;12.25;83.93
78317;BME280;67572;50.930;18.276;2023-05-15T03:46:22;98182.81;;;12.40;84.13
78317;BME280;67572;50.930;18.276;2023-05-15T03:49:27;98182.53;;;12.34;84.21
78317;BME280;67572;50.930;18.276;2023-05-15T03:52:31;98180.84;;;12.23;84.69
78317;BME280;67572;50.930;18.276;2023-05-15T03:55:34;98187.16;;;12.22;84.72
78317;BME280;67572;50.930;18.276;2023-05-15T03:58:40;98186.19;;;12.33;85.07
78317;BME280;67572;50.930;18.276;2023-05-15T04:01:44;98187.28;;;12.20;85.10
78317;BME280;67572;50.930;18.276;2023-05-15T04:05:07;98189.28;;;12.47;84.85
78317;BME280;67572;50.930;18.276;2023-05-15T04:08:10;98187.03;;;12.43;84.70
78317;BME280;67572;50.930;18.276;2023-05-15T04:11:14;98196.28;;;12.29;84.74
78317;BME280;67572;50.930;18.276;2023-05-15T04:14:18;98199.78;;;12.30;84.60
78317;BME280;67572;50.930;18.276;2023-05-15T04:17:21;98192.91;;;12.37;84.02
78317;BME280;67572;50.930;18.276;2023-05-15T04:20:26;98194.34;;;12.41;84.83
78317;BME280;67572;50.930;18.276;2023-05-15T04:23:30;98198.66;;;12.52;84.52
78317;BME280;67572;50.930;18.276;2023-05-15T04:26:33;98190.25;;;12.56;84.05
78317;BME280;67572;50.930;18.276;2023-05-15T04:29:37;98197.13;;;12.59;83.35
78317;BME280;67572;50.930;18.276;2023-05-15T04:32:41;98194.03;;;12.44;84.10
78317;BME280;67572;50.930;18.276;2023-05-15T04:35:46;98193.06;;;12.55;83.95
78317;BME280;67572;50.930;18.276;2023-05-15T04:38:50;98185.63;;;12.58;83.21
78317;BME280;67572;50.930;18.276;2023-05-15T04:41:53;98182.94;;;12.68;83.33
78317;BME280;67572;50.930;18.276;2023-05-15T04:44:57;98188.44;;;12.57;83.76
78317;BME280;67572;50.930;18.276;2023-05-15T04:48:01;98181.13;;;12.78;83.36
78317;BME280;67572;50.930;18.276;2023-05-15T04:51:06;98180.00;;;12.61;83.61
78317;BME280;67572;50.930;18.276;2023-05-15T04:54:09;98176.63;;;12.69;83.33
78317;BME280;67572;50.930;18.276;2023-05-15T04:57:13;98176.22;;;12.73;83.28
78317;BME280;67572;50.930;18.276;2023-05-15T05:00:17;98173.81;;;12.80;83.20
78317;BME280;67572;50.930;18.276;2023-05-15T05:03:20;98170.88;;;12.64;83.45
78317;BME280;67572;50.930;18.276;2023-05-15T05:06:25;98170.56;;;12.76;83.09
78317;BME280;67572;50.930;18.276;2023-05-15T05:09:32;98170.75;;;12.65;83.48
78317;BME280;67572;50.930;18.276;2023-05-15T05:12:36;98165.09;;;12.88;83.07
78317;BME280;67572;50.930;18.276;2023-05-15T05:15:39;98155.56;;;12.85;82.82
78317;BME280;67572;50.930;18.276;2023-05-15T05:18:43;98160.75;;;12.87;83.06
78317;BME280;67572;50.930;18.276;2023-05-15T05:21:48;98146.16;;;12.81;83.40
78317;BME280;67572;50.930;18.276;2023-05-15T05:24:52;98156.03;;;13.18;82.46
78317;BME280;67572;50.930;18.276;2023-05-15T05:27:55;98154.09;;;13.10;82.01
78317;BME280;67572;50.930;18.276;2023-05-15T05:30:59;98158.13;;;13.14;81.57
78317;BME280;67572;50.930;18.276;2023-05-15T05:34:03;98153.41;;;12.98;82.17
78317;BME280;67572;50.930;18.276;2023-05-15T05:37:09;98147.47;;;13.14;82.13
78317;BME280;67572;50.930;18.276;2023-05-15T05:40:12;98140.78;;;13.00;81.84
78317;BME280;67572;50.930;18.276;2023-05-15T05:43:16;98128.91;;;13.22;81.94
78317;BME280;67572;50.930;18.276;2023-05-15T05:46:20;98131.31;;;13.25;81.23
78317;BME280;67572;50.930;18.276;2023-05-15T05:49:23;98116.72;;;13.10;82.08
78317;BME280;67572;50.930;18.276;2023-05-15T05:52:29;98125.13;;;13.25;82.06
78317;BME280;67572;50.930;18.276;2023-05-15T05:55:32;98128.66;;;13.25;81.67
78317;BME280;67572;50.930;18.276;2023-05-15T05:58:36;98126.72;;;13.08;82.07
78317;BME280;67572;50.930;18.276;2023-05-15T06:01:39;98123.66;;;13.40;81.87
78317;BME280;67572;50.930;18.276;2023-05-15T06:04:43;98124.81;;;13.28;81.48
78317;BME280;67572;50.930;18.276;2023-05-15T06:07:48;98123.00;;;13.28;81.05
78317;BME280;67572;50.930;18.276;2023-05-15T06:10:52;98111.31;;;13.39;81.01
78317;BME280;67572;50.930;18.276;2023-05-15T06:13:56;98109.63;;;13.38;81.24
78317;BME280;67572;50.930;18.276;2023-05-15T06:17:00;98111.25;;;13.49;81.38
78317;BME280;67572;50.930;18.276;2023-05-15T06:20:05;98106.09;;;13.65;80.27
78317;BME280;67572;50.930;18.276;2023-05-15T06:23:10;98103.91;;;13.51;81.08
78317;BME280;67572;50.930;18.276;2023-05-15T06:26:14;98104.97;;;13.40;81.68
78317;BME280;67572;50.930;18.276;2023-05-15T06:29:19;98102.31;;;13.40;81.90
78317;BME280;67572;50.930;18.276;2023-05-15T06:32:22;98095.72;;;13.35;81.86
78317;BME280;67572;50.930;18.276;2023-05-15T06:35:26;98103.63;;;13.26;81.30
78317;BME280;67572;50.930;18.276;2023-05-15T06:38:31;98099.78;;;13.39;81.18
78317;BME280;67572;50.930;18.276;2023-05-15T06:41:34;98099.31;;;13.43;81.31
78317;BME280;67572;50.930;18.276;2023-05-15T06:44:38;98092.25;;;13.24;81.57
78317;BME280;67572;50.930;18.276;2023-05-15T06:47:41;98093.22;;;13.33;81.15
78317;BME280;67572;50.930;18.276;2023-05-15T06:50:45;98092.47;;;13.41;81.07
78317;BME280;67572;50.930;18.276;2023-05-15T06:53:49;98095.81;;;13.43;81.55
78317;BME280;67572;50.930;18.276;2023-05-15T06:56:54;98089.06;;;13.48;81.53
78317;BME280;67572;50.930;18.276;2023-05-15T06:59:57;98082.78;;;13.40;81.12
78317;BME280;67572;50.930;18.276;2023-05-15T07:03:01;98076.53;;;13.49;80.91
78317;BME280;67572;50.930;18.276;2023-05-15T07:06:05;98090.19;;;13.46;81.17
78317;BME280;67572;50.930;18.276;2023-05-15T07:09:10;98094.47;;;13.29;81.85
78317;BME280;67572;50.930;18.276;2023-05-15T07:12:13;98085.53;;;13.20;81.59
78317;BME280;67572;50.930;18.276;2023-05-15T07:15:17;98082.69;;;13.22;81.11
78317;BME280;67572;50.930;18.276;2023-05-15T07:18:20;98082.47;;;13.05;82.28
78317;BME280;67572;50.930;18.276;2023-05-15T07:21:24;98078.78;;;13.16;82.65
78317;BME280;67572;50.930;18.276;2023-05-15T07:24:29;98080.63;;;13.16;82.67
78317;BME280;67572;50.930;18.276;2023-05-15T07:27:32;98086.34;;;13.30;82.06
78317;BME280;67572;50.930;18.276;2023-05-15T07:30:36;98081.16;;;13.19;82.43
78317;BME280;67572;50.930;18.276;2023-05-15T07:33:46;98081.72;;;13.13;82.62
78317;BME280;67572;50.930;18.276;2023-05-15T07:36:50;98074.97;;;13.19;82.15
78317;BME280;67572;50.930;18.276;2023-05-15T07:39:55;98077.28;;;13.41;82.05
78317;BME280;67572;50.930;18.276;2023-05-15T07:43:06;98067.84;;;13.47;81.70
78317;BME280;67572;50.930;18.276;2023-05-15T07:46:14;98067.09;;;13.54;81.65
78317;BME280;67572;50.930;18.276;2023-05-15T07:49:18;98075.66;;;13.30;81.61
78317;BME280;67572;50.930;18.276;2023-05-15T07:52:21;98072.34;;;13.09;82.60
78317;BME280;67572;50.930;18.276;2023-05-15T07:55:27;98078.28;;;13.03;82.50
78317;BME280;67572;50.930;18.276;2023-05-15T07:58:33;98066.81;;;12.93;83.55
78317;BME280;67572;50.930;18.276;2023-05-15T08:01:52;98068.59;;;13.02;83.78
78317;BME280;67572;50.930;18.276;2023-05-15T08:04:59;98069.78;;;13.17;83.10
78317;BME280;67572;50.930;18.276;2023-05-15T08:08:03;98055.00;;;13.32;82.71
78317;BME280;67572;50.930;18.276;2023-05-15T08:11:08;98055.47;;;13.46;82.19
78317;BME280;67572;50.930;18.276;2023-05-15T08:14:12;98061.91;;;13.25;81.83
78317;BME280;67572;50.930;18.276;2023-05-15T08:17:16;98052.00;;;13.36;81.83
78317;BME280;67572;50.930;18.276;2023-05-15T08:20:20;98047.69;;;13.52;82.04
78317;BME280;67572;50.930;18.276;2023-05-15T08:23:24;98050.69;;;13.67;80.53
78317;BME280;67572;50.930;18.276;2023-05-15T08:26:29;98054.34;;;13.21;81.98
78317;BME280;67572;50.930;18.276;2023-05-15T08:29:33;98048.00;;;13.49;81.47
78317;BME280;67572;50.930;18.276;2023-05-15T08:32:42;98057.41;;;13.26;81.85
78317;BME280;67572;50.930;18.276;2023-05-15T08:35:46;98056.78;;;13.04;81.65
78317;BME280;67572;50.930;18.276;2023-05-15T08:38:50;98056.13;;;12.93;82.73
78317;BME280;67572;50.930;18.276;2023-05-15T08:41:59;98059.75;;;13.01;82.98
78317;BME280;67572;50.930;18.276;2023-05-15T08:45:06;98061.84;;;13.08;82.99
78317;BME280;67572;50.930;18.276;2023-05-15T08:48:13;98056.59;;;13.16;82.22
78317;BME280;67572;50.930;18.276;2023-05-15T08:51:18;98065.19;;;13.10;82.57
78317;BME280;67572;50.930;18.276;2023-05-15T08:54:23;98064.09;;;13.02;82.74
78317;BME280;67572;50.930;18.276;2023-05-15T08:57:28;98076.34;;;13.32;82.28
78317;BME280;67572;50.930;18.276;2023-05-15T09:00:32;98068.69;;;13.65;82.64
78317;BME280;67572;50.930;18.276;2023-05-15T09:03:37;98063.16;;;13.94;81.54
78317;BME280;67572;50.930;18.276;2023-05-15T09:06:40;98063.50;;;13.64;81.48
78317;BME280;67572;50.930;18.276;2023-05-15T09:09:46;98065.91;;;13.39;81.40
78317;BME280;67572;50.930;18.276;2023-05-15T09:12:56;98062.28;;;13.58;81.80
78317;BME280;67572;50.930;18.276;2023-05-15T09:16:00;98063.13;;;13.58;81.52
78317;BME280;67572;50.930;18.276;2023-05-15T09:19:04;98066.78;;;13.57;81.51
78317;BME280;67572;50.930;18.276;2023-05-15T09:22:16;98055.84;;;13.51;82.25
78317;BME280;67572;50.930;18.276;2023-05-15T09:25:38;98063.25;;;13.84;81.73
78317;BME280;67572;50.930;18.276;2023-05-15T09:29:10;98069.84;;;13.63;82.17
78317;BME280;67572;50.930;18.276;2023-05-15T09:32:21;98073.94;;;13.57;81.85
78317;BME280;67572;50.930;18.276;2023-05-15T09:35:30;98077.97;;;13.43;81.73
78317;BME280;67572;50.930;18.276;2023-05-15T09:38:38;98075.50;;;13.32;81.72
78317;BME280;67572;50.930;18.276;2023-05-15T09:42:08;98069.69;;;13.46;82.54
78317;BME280;67572;50.930;18.276;2023-05-15T09:45:40;98078.88;;;13.34;82.40
78317;BME280;67572;50.930;18.276;2023-05-15T09:48:46;98082.44;;;13.25;82.59
78317;BME280;67572;50.930;18.276;2023-05-15T09:51:53;98078.69;;;13.08;83.09
78317;BME280;67572;50.930;18.276;2023-05-15T09:55:05;98075.28;;;13.43;83.07
78317;BME280;67572;50.930;18.276;2023-05-15T09:58:14;98070.75;;;13.53;82.45
78317;BME280;67572;50.930;18.276;2023-05-15T10:01:23;98067.94;;;13.55;82.18
78317;BME280;67572;50.930;18.276;2023-05-15T10:04:33;98064.19;;;13.66;81.90
78317;BME280;67572;50.930;18.276;2023-05-15T10:07:41;98072.03;;;13.49;82.67
78317;BME280;67572;50.930;18.276;2023-05-15T10:10:45;98062.59;;;13.55;82.69
78317;BME280;67572;50.930;18.276;2023-05-15T10:13:52;98081.78;;;14.04;82.64
78317;BME280;67572;50.930;18.276;2023-05-15T10:16:58;98072.63;;;14.06;82.06
78317;BME280;67572;50.930;18.276;2023-05-15T10:20:03;98075.75;;;14.02;82.53
78317;BME280;67572;50.930;18.276;2023-05-15T10:23:09;98075.38;;;13.79;83.08
78317;BME280;67572;50.930;18.276;2023-05-15T10:26:26;98074.22;;;13.81;83.06
78317;BME280;67572;50.930;18.276;2023-05-15T10:29:35;98078.75;;;13.99;82.35
78317;BME280;67572;50.930;18.276;2023-05-15T10:32:42;98078.72;;;14.16;81.25
78317;BME280;67572;50.930;18.276;2023-05-15T10:35:46;98079.41;;;14.36;81.67
78317;BME280;67572;50.930;18.276;2023-05-15T10:38:51;98068.72;;;14.54;81.12
78317;BME280;67572;50.930;18.276;2023-05-15T10:41:55;98069.00;;;14.33;80.93
78317;BME280;67572;50.930;18.276;2023-05-15T10:45:00;98076.75;;;14.36;80.55
78317;BME280;67572;50.930;18.276;2023-05-15T10:48:06;98069.41;;;14.21;80.96
78317;BME280;67572;50.930;18.276;2023-05-15T10:51:17;98074.28;;;14.25;80.32
78317;BME280;67572;50.930;18.276;2023-05-15T10:54:27;98078.97;;;14.23;80.30
78317;BME280;67572;50.930;18.276;2023-05-15T10:57:31;98071.84;;;14.50;80.44
78317;BME280;67572;50.930;18.276;2023-05-15T11:00:41;98062.72;;;14.42;80.54
78317;BME280;67572;50.930;18.276;2023-05-15T11:03:47;98058.94;;;14.71;78.93
78317;BME280;67572;50.930;18.276;2023-05-15T11:07:11;98052.53;;;14.64;78.55
78317;BME280;67572;50.930;18.276;2023-05-15T11:10:50;98056.06;;;14.90;77.22
78317;BME280;67572;50.930;18.276;2023-05-15T11:14:30;98056.13;;;15.49;77.29
78317;BME280;67572;50.930;18.276;2023-05-15T11:18:10;98063.19;;;15.50;75.07
78317;BME280;67572;50.930;18.276;2023-05-15T11:21:22;98052.31;;;16.10;73.73
78317;BME280;67572;50.930;18.276;2023-05-15T11:25:19;98055.84;;;15.60;72.56
78317;BME280;67572;50.930;18.276;2023-05-15T11:29:22;98056.56;;;15.70;72.55
78317;BME280;67572;50.930;18.276;2023-05-15T11:32:40;98055.63;;;15.79;73.19
78317;BME280;67572;50.930;18.276;2023-05-15T11:35:46;98057.16;;;16.06;72.20
78317;BME280;67572;50.930;18.276;2023-05-15T11:38:52;98045.38;;;15.75;69.31
78317;BME280;67572;50.930;18.276;2023-05-15T11:41:55;98042.06;;;16.79;67.17
78317;BME280;67572;50.930;18.276;2023-05-15T11:45:06;98038.69;;;16.60;68.04
78317;BME280;67572;50.930;18.276;2023-05-15T11:48:25;98047.44;;;16.05;67.88
78317;BME280;67572;50.930;18.276;2023-05-15T11:51:32;98040.56;;;16.35;70.75
78317;BME280;67572;50.930;18.276;2023-05-15T11:54:38;98037.34;;;17.28;67.93
78317;BME280;67572;50.930;18.276;2023-05-15T11:57:41;98031.47;;;17.33;66.20
78317;BME280;67572;50.930;18.276;2023-05-15T12:00:46;98035.59;;;18.06;66.87
78317;BME280;67572;50.930;18.276;2023-05-15T12:03:50;98020.88;;;17.39;67.53
78317;BME280;67572;50.930;18.276;2023-05-15T12:06:56;98022.63;;;17.24;66.62
78317;BME280;67572;50.930;18.276;2023-05-15T12:10:05;98018.88;;;16.86;65.68
78317;BME280;67572;50.930;18.276;2023-05-15T12:13:09;98017.09;;;16.29;67.50
78317;BME280;67572;50.930;18.276;2023-05-15T12:16:13;98003.06;;;16.99;66.99
78317;BME280;67572;50.930;18.276;2023-05-15T12:19:17;98004.69;;;17.47;65.05
78317;BME280;67572;50.930;18.276;2023-05-15T12:22:20;97991.13;;;17.41;64.68
78317;BME280;67572;50.930;18.276;2023-05-15T12:25:26;97987.06;;;17.45;63.24
78317;BME280;67572;50.930;18.276;2023-05-15T12:28:33;97985.50;;;17.82;64.05
78317;BME280;67572;50.930;18.276;2023-05-15T12:31:38;97992.00;;;17.33;63.66
78317;BME280;67572;50.930;18.276;2023-05-15T12:34:41;97999.25;;;16.85;64.37
78317;BME280;67572;50.930;18.276;2023-05-15T12:37:45;98017.53;;;16.82;63.56
78317;BME280;67572;50.930;18.276;2023-05-15T12:40:51;98006.19;;;16.39;63.82
78317;BME280;67572;50.930;18.276;2023-05-15T12:43:58;98016.09;;;16.14;64.37
78317;BME280;67572;50.930;18.276;2023-05-15T12:47:01;98018.59;;;15.83;66.16
78317;BME280;67572;50.930;18.276;2023-05-15T12:50:12;98025.44;;;15.77;67.29
78317;BME280;67572;50.930;18.276;2023-05-15T12:53:16;98019.84;;;15.54;67.68
78317;BME280;67572;50.930;18.276;2023-05-15T12:56:22;98026.38;;;15.60;67.18
78317;BME280;67572;50.930;18.276;2023-05-15T12:59:26;98024.69;;;15.51;68.76
78317;BME280;67572;50.930;18.276;2023-05-15T13:02:33;98026.50;;;15.34;69.92
78317;BME280;67572;50.930;18.276;2023-05-15T13:05:41;98040.31;;;15.21;72.00
78317;BME280;67572;50.930;18.276;2023-05-15T13:08:46;98008.72;;;14.91;72.22
78317;BME280;67572;50.930;18.276;2023-05-15T13:11:53;98014.09;;;14.65;71.06
78317;BME280;67572;50.930;18.276;2023-05-15T13:14:57;98029.78;;;14.42;72.81
78317;BME280;67572;50.930;18.276;2023-05-15T13:18:02;98029.94;;;14.14;73.08
78317;BME280;67572;50.930;18.276;2023-05-15T13:21:06;98037.06;;;14.06;73.88
78317;BME280;67572;50.930;18.276;2023-05-15T13:24:10;98048.84;;;13.68;75.36
78317;BME280;67572;50.930;18.276;2023-05-15T13:27:15;98046.47;;;13.47;76.18
78317;BME280;67572;50.930;18.276;2023-05-15T13:30:19;98053.41;;;13.40;76.38
78317;BME280;67572;50.930;18.276;2023-05-15T13:33:22;98068.53;;;13.21;76.37
78317;BME280;67572;50.930;18.276;2023-05-15T13:36:34;98059.34;;;12.96;78.56
78317;BME280;67572;50.930;18.276;2023-05-15T13:39:37;98057.34;;;12.98;79.03
78317;BME280;67572;50.930;18.276;2023-05-15T13:42:43;98060.78;;;12.81;80.02
78317;BME280;67572;50.930;18.276;2023-05-15T13:45:47;98073.91;;;12.65;80.63
78317;BME280;67572;50.930;18.276;2023-05-15T13:48:50;98073.88;;;12.74;80.49
78317;BME280;67572;50.930;18.276;2023-05-15T13:51:54;98078.97;;;12.58;81.24
78317;BME280;67572;50.930;18.276;2023-05-15T13:55:00;98084.38;;;12.76;80.64
78317;BME280;67572;50.930;18.276;2023-05-15T13:58:06;98080.66;;;12.49;80.67
78317;BME280;67572;50.930;18.276;2023-05-15T14:01:10;98079.91;;;12.67;80.79
78317;BME280;67572;50.930;18.276;2023-05-15T14:04:13;98071.22;;;12.65;81.07
78317;BME280;67572;50.930;18.276;2023-05-15T14:07:17;98080.19;;;12.73;81.40
78317;BME280;67572;50.930;18.276;2023-05-15T14:10:21;98072.88;;;13.22;80.97
78317;BME280;67572;50.930;18.276;2023-05-15T14:13:26;98059.88;;;14.00;79.68
78317;BME280;67572;50.930;18.276;2023-05-15T14:16:32;98062.16;;;13.95;79.33
78317;BME280;67572;50.930;18.276;2023-05-15T14:19:36;98059.16;;;13.63;80.13
78317;BME280;67572;50.930;18.276;2023-05-15T14:22:39;98058.19;;;13.64;80.42
78317;BME280;67572;50.930;18.276;2023-05-15T14:25:43;98057.50;;;13.79;80.84
78317;BME280;67572;50.930;18.276;2023-05-15T14:28:48;98060.81;;;13.46;81.17
78317;BME280;67572;50.930;18.276;2023-05-15T14:31:52;98070.16;;;13.32;81.11
78317;BME280;67572;50.930;18.276;2023-05-15T14:34:55;98078.03;;;13.33;82.00
78317;BME280;67572;50.930;18.276;2023-05-15T14:38:01;98073.63;;;13.42;82.07
78317;BME280;67572;50.930;18.276;2023-05-15T14:41:04;98070.84;;;13.34;82.74
78317;BME280;67572;50.930;18.276;2023-05-15T14:44:10;98081.19;;;13.47;82.23
78317;BME280;67572;50.930;18.276;2023-05-15T14:47:13;98067.19;;;13.80;82.36
78317;BME280;67572;50.930;18.276;2023-05-15T14:50:17;98071.78;;;13.88;82.00
78317;BME280;67572;50.930;18.276;2023-05-15T14:53:21;98073.91;;;14.02;81.66
78317;BME280;67572;50.930;18.276;2023-05-15T14:56:24;98071.56;;;13.99;80.78
78317;BME280;67572;50.930;18.276;2023-05-15T14:59:32;98075.00;;;13.92;81.82
78317;BME280;67572;50.930;18.276;2023-05-15T15:02:35;98067.34;;;13.61;81.56
78317;BME280;67572;50.930;18.276;2023-05-15T15:05:39;98067.75;;;13.84;81.83
78317;BME280;67572;50.930;18.276;2023-05-15T15:08:42;98070.69;;;13.81;81.52
78317;BME280;67572;50.930;18.276;2023-05-15T15:11:46;98072.69;;;13.79;80.62
78317;BME280;67572;50.930;18.276;2023-05-15T15:14:51;98065.53;;;13.52;80.73
78317;BME280;67572;50.930;18.276;2023-05-15T15:17:55;98062.16;;;14.13;79.78
78317;BME280;67572;50.930;18.276;2023-05-15T15:20:59;98059.22;;;14.42;79.30
78317;BME280;67572;50.930;18.276;2023-05-15T15:24:02;98058.03;;;14.36;78.52
78317;BME280;67572;50.930;18.276;2023-05-15T15:27:06;98062.22;;;14.39;79.41
78317;BME280;67572;50.930;18.276;2023-05-15T15:30:14;98066.34;;;13.98;77.97
78317;BME280;67572;50.930;18.276;2023-05-15T15:33:18;98061.31;;;14.30;79.39
78317;BME280;67572;50.930;18.276;2023-05-15T15:36:22;98058.63;;;14.48;78.11
78317;BME280;67572;50.930;18.276;2023-05-15T15:39:26;98055.84;;;14.58;78.02
78317;BME280;67572;50.930;18.276;2023-05-15T15:42:29;98058.56;;;14.66;77.98
78317;BME280;67572;50.930;18.276;2023-05-15T15:45:34;98059.38;;;14.40;78.25
78317;BME280;67572;50.930;18.276;2023-05-15T15:48:38;98056.97;;;14.29;78.80
78317;BME280;67572;50.930;18.276;2023-05-15T15:51:41;98051.56;;;14.21;79.34
78317;BME280;67572;50.930;18.276;2023-05-15T15:54:45;98043.94;;;14.34;79.85
78317;BME280;67572;50.930;18.276;2023-05-15T15:57:49;98055.47;;;14.35;79.12
78317;BME280;67572;50.930;18.276;2023-05-15T16:00:54;98067.66;;;14.47;78.52
78317;BME280;67572;50.930;18.276;2023-05-15T16:03:57;98071.25;;;14.02;79.03
78317;BME280;67572;50.930;18.276;2023-05-15T16:07:02;98060.00;;;14.52;78.03
78317;BME280;67572;50.930;18.276;2023-05-15T16:10:06;98074.38;;;14.15;78.78
78317;BME280;67572;50.930;18.276;2023-05-15T16:13:14;98065.25;;;14.62;77.85
78317;BME280;67572;50.930;18.276;2023-05-15T16:16:19;98055.50;;;14.17;79.01
78317;BME280;67572;50.930;18.276;2023-05-15T16:19:23;98062.16;;;13.95;79.61